Time;durP1;ratioP1;P1;durP2;ratioP2;P2;SDS_P1;SDS_P2;PMS_P1;PMS_P2;Temp;Humidity;BMP_temperature;BMP_pressure;BME280_temperature;BME280_humidity;BME280_pressure;Samples;Min_cycle;Max_cycle;Signal;HPM_P1;HPM_P2
2024/01/26 00:01:57;;;;;;;17.87;11.10;;;10.40;99.90;;;;;;5045763;28;20196;-63
2024/01/26 00:04:26;;;;;;;20.37;12.37;;;10.40;99.90;;;;;;5044391;28;20210;-63
2024/01/26 00:06:55;;;;;;;15.07;10.67;;;10.40;99.90;;;;;;5046361;28;20302;-63
2024/01/26 00:09:24;;;;;;;14.17;10.83;;;10.40;99.90;;;;;;5046636;28;20216;-64
2024/01/26 00:11:52;;;;;;;18.30;12.03;;;10.40;99.90;;;;;;5038050;28;20275;-64
2024/01/26 00:14:20;;;;;;;16.80;12.57;;;10.40;99.90;;;;;;5047243;28;20217;-63
2024/01/26 00:16:48;;;;;;;21.50;13.73;;;10.40;99.90;;;;;;5046051;28;20224;-64
2024/01/26 00:19:16;;;;;;;20.27;13.90;;;10.40;99.90;;;;;;5046683;28;20224;-63
2024/01/26 00:21:46;;;;;;;23.70;14.27;;;10.50;99.90;;;;;;5058302;28;20228;-64
2024/01/26 00:24:14;;;;;;;17.70;14.10;;;10.50;99.90;;;;;;5045134;28;20220;-64
2024/01/26 00:26:43;;;;;;;22.93;14.60;;;10.50;99.90;;;;;;5045994;28;20687;-64
2024/01/26 00:29:11;;;;;;;18.53;13.53;;;10.50;99.90;;;;;;5045950;28;20235;-63
2024/01/26 00:31:39;;;;;;;17.13;12.60;;;10.50;99.90;;;;;;5045342;28;20202;-64
2024/01/26 00:34:07;;;;;;;16.23;11.70;;;10.50;99.90;;;;;;5040922;28;20231;-63
2024/01/26 00:36:35;;;;;;;17.20;11.03;;;10.50;99.90;;;;;;5041987;28;20217;-63
2024/01/26 00:39:06;;;;;;;13.83;10.20;;;10.50;99.90;;;;;;5045058;28;20534;-64
2024/01/26 00:41:34;;;;;;;12.30;10.00;;;10.40;99.90;;;;;;5043945;28;20220;-63
2024/01/26 00:44:03;;;;;;;12.10;9.50;;;10.40;99.90;;;;;;5043436;28;20212;-63
2024/01/26 00:46:31;;;;;;;11.37;8.40;;;10.30;99.90;;;;;;5041818;28;20247;-64
2024/01/26 00:48:59;;;;;;;11.23;9.30;;;10.30;99.90;;;;;;5045974;28;20218;-64
2024/01/26 00:51:28;;;;;;;10.60;9.17;;;10.20;99.90;;;;;;5046086;28;20591;-63
2024/01/26 00:53:56;;;;;;;9.90;8.90;;;10.30;99.90;;;;;;5039223;28;20220;-63
2024/01/26 00:56:25;;;;;;;11.10;9.80;;;10.30;99.90;;;;;;5043444;28;20199;-63
2024/01/26 00:58:54;;;;;;;24.27;9.53;;;10.30;99.90;;;;;;5042663;28;20197;-63
2024/01/26 01:01:22;;;;;;;11.70;9.23;;;10.40;99.90;;;;;;5044477;28;20574;-63
2024/01/26 01:03:51;;;;;;;11.40;9.23;;;10.40;99.90;;;;;;5045689;28;20213;-63
2024/01/26 01:06:19;;;;;;;12.47;8.30;;;10.40;99.90;;;;;;5043782;28;20217;-63
2024/01/26 01:08:47;;;;;;;12.27;8.40;;;10.40;99.90;;;;;;5045276;28;20839;-63
2024/01/26 01:11:15;;;;;;;13.27;8.37;;;10.50;99.90;;;;;;5043208;28;20619;-63
2024/01/26 01:13:45;;;;;;;9.83;8.83;;;10.50;99.90;;;;;;5044464;28;20216;-63
2024/01/26 01:16:15;;;;;;;11.07;8.93;;;10.40;99.90;;;;;;5044801;28;20235;-64
2024/01/26 01:18:43;;;;;;;12.50;9.37;;;10.50;99.90;;;;;;5039480;28;20241;-64
2024/01/26 01:21:11;;;;;;;11.53;9.47;;;10.50;99.90;;;;;;5045770;28;20235;-63
2024/01/26 01:23:40;;;;;;;12.27;9.03;;;10.60;99.90;;;;;;5041834;28;20216;-63
2024/01/26 01:26:09;;;;;;;14.63;9.47;;;10.60;99.90;;;;;;5039192;28;20302;-63
2024/01/26 01:28:37;;;;;;;12.13;9.00;;;10.60;99.90;;;;;;5039433;28;20793;-63
2024/01/26 01:31:06;;;;;;;10.27;8.70;;;10.70;99.90;;;;;;5040336;28;20647;-63
2024/01/26 01:33:35;;;;;;;13.13;9.67;;;10.70;99.90;;;;;;5045101;28;20618;-63
2024/01/26 01:36:04;;;;;;;13.87;9.97;;;10.70;99.90;;;;;;5045849;28;20220;-63
2024/01/26 01:38:32;;;;;;;11.93;9.87;;;10.70;99.90;;;;;;5042111;28;20687;-63
2024/01/26 01:41:00;;;;;;;14.43;10.00;;;10.70;99.90;;;;;;5041415;28;20197;-64
2024/01/26 01:43:29;;;;;;;14.10;10.53;;;10.70;99.90;;;;;;5057948;28;21914;-63
2024/01/26 01:45:57;;;;;;;14.77;10.27;;;10.70;99.90;;;;;;5041296;28;20221;-62
2024/01/26 01:48:27;;;;;;;12.37;10.30;;;10.70;99.90;;;;;;5041386;28;20255;-62
2024/01/26 01:50:55;;;;;;;17.30;10.63;;;10.70;99.90;;;;;;5041660;28;20634;-62
2024/01/26 01:53:25;;;;;;;12.10;9.60;;;10.60;99.90;;;;;;5040111;28;20223;-62
2024/01/26 01:55:54;;;;;;;13.80;10.07;;;10.60;99.90;;;;;;5044807;28;20303;-62
2024/01/26 01:58:23;;;;;;;12.27;9.53;;;10.50;99.90;;;;;;5040722;28;20224;-62
2024/01/26 02:00:51;;;;;;;14.73;9.53;;;10.50;99.90;;;;;;5042859;28;20224;-62
2024/01/26 02:03:21;;;;;;;14.87;9.90;;;10.50;99.90;;;;;;5043342;28;20217;-62
2024/01/26 02:05:52;;;;;;;16.37;9.67;;;10.50;99.90;;;;;;5042916;28;20216;-62
2024/01/26 02:08:20;;;;;;;16.67;9.87;;;10.50;99.90;;;;;;5044804;28;20196;-62
2024/01/26 02:10:48;;;;;;;12.80;9.37;;;10.40;99.90;;;;;;5044441;28;20200;-62
2024/01/26 02:13:17;;;;;;;14.47;10.07;;;10.40;99.90;;;;;;5040290;28;20223;-62
2024/01/26 02:15:45;;;;;;;16.03;10.27;;;10.50;99.90;;;;;;5044869;28;20228;-62
2024/01/26 02:18:15;;;;;;;14.23;10.43;;;10.50;99.90;;;;;;5043161;28;20764;-62
2024/01/26 02:20:44;;;;;;;14.20;9.93;;;10.50;99.90;;;;;;5037970;28;20232;-62
2024/01/26 02:23:24;;;;;;;16.37;10.80;;;10.50;99.90;;;;;;5043779;28;20200;-62
2024/01/26 02:25:52;;;;;;;12.30;9.73;;;10.40;99.90;;;;;;5042382;28;20276;-62
2024/01/26 02:28:20;;;;;;;12.13;9.80;;;10.50;99.90;;;;;;5044266;28;20723;-63
2024/01/26 02:30:49;;;;;;;16.43;9.97;;;10.40;99.90;;;;;;5040392;28;20225;-62
2024/01/26 02:33:17;;;;;;;16.70;9.53;;;10.50;99.90;;;;;;5041441;28;20231;-63
2024/01/26 02:35:45;;;;;;;17.53;10.53;;;10.50;99.90;;;;;;5039464;28;20289;-62
2024/01/26 02:38:14;;;;;;;12.33;9.83;;;10.50;99.90;;;;;;5041355;28;20213;-62
2024/01/26 02:40:43;;;;;;;13.07;9.63;;;10.60;99.90;;;;;;5040278;28;20210;-63
2024/01/26 02:43:12;;;;;;;12.90;9.77;;;10.60;99.90;;;;;;5043505;28;20217;-62
2024/01/26 02:45:43;;;;;;;13.10;9.73;;;10.70;99.90;;;;;;5043319;28;20225;-62
2024/01/26 02:48:12;;;;;;;13.03;9.17;;;10.70;99.90;;;;;;5044439;28;20225;-62
2024/01/26 02:50:40;;;;;;;10.63;9.20;;;10.70;99.90;;;;;;5042592;28;20228;-62
2024/01/26 02:53:08;;;;;;;13.07;8.93;;;10.70;99.90;;;;;;5041596;28;20196;-62
2024/01/26 02:55:37;;;;;;;14.90;9.57;;;10.70;99.90;;;;;;5044270;28;20205;-62
2024/01/26 02:58:06;;;;;;;10.40;8.47;;;10.70;99.90;;;;;;5044785;28;20220;-63
2024/01/26 03:00:35;;;;;;;10.93;9.40;;;10.70;99.90;;;;;;5034357;28;20347;-62
2024/01/26 03:03:03;;;;;;;10.73;9.00;;;10.70;99.90;;;;;;5044622;28;20267;-62
2024/01/26 03:05:31;;;;;;;12.07;9.47;;;10.70;99.90;;;;;;5039852;28;20221;-62
2024/01/26 03:08:00;;;;;;;13.80;9.40;;;10.70;99.90;;;;;;5041642;28;20185;-62
2024/01/26 03:10:28;;;;;;;13.37;9.87;;;10.70;99.90;;;;;;5041017;28;20276;-62
2024/01/26 03:12:56;;;;;;;16.27;9.80;;;10.70;99.90;;;;;;5043045;28;20217;-62
2024/01/26 03:15:26;;;;;;;15.43;10.07;;;10.70;99.90;;;;;;5047430;28;20725;-62
2024/01/26 03:17:54;;;;;;;11.50;9.60;;;10.60;99.90;;;;;;5047434;28;20307;-62
2024/01/26 03:20:22;;;;;;;14.70;9.77;;;10.70;99.90;;;;;;5044875;28;20595;-62
2024/01/26 03:22:51;;;;;;;15.77;10.00;;;10.70;99.90;;;;;;5045592;28;20201;-62
2024/01/26 03:25:19;;;;;;;14.80;10.57;;;10.70;99.90;;;;;;5041153;28;20230;-63
2024/01/26 03:27:47;;;;;;;13.77;10.07;;;10.70;99.90;;;;;;5045496;28;20266;-62
2024/01/26 03:30:14;;;;;;;12.60;10.33;;;10.70;99.90;;;;;;5046887;28;20706;-62
2024/01/26 03:32:44;;;;;;;13.27;9.73;;;10.70;99.90;;;;;;5039939;28;20275;-62
2024/01/26 03:35:13;;;;;;;15.93;9.80;;;10.70;99.90;;;;;;5046414;28;20309;-63
2024/01/26 03:37:41;;;;;;;15.97;10.30;;;10.80;99.90;;;;;;5044798;28;20703;-62
2024/01/26 03:40:10;;;;;;;15.67;10.70;;;10.80;99.90;;;;;;5041715;28;20315;-63
2024/01/26 03:42:38;;;;;;;14.33;10.43;;;10.80;99.90;;;;;;5045664;28;20561;-63
2024/01/26 03:45:08;;;;;;;12.13;9.90;;;10.70;99.90;;;;;;5043006;28;20213;-63
2024/01/26 03:47:36;;;;;;;15.10;10.57;;;10.70;99.90;;;;;;5046601;28;20240;-63
2024/01/26 03:50:06;;;;;;;13.83;9.90;;;10.70;99.90;;;;;;5046162;28;20185;-63
2024/01/26 03:52:34;;;;;;;16.33;10.57;;;10.80;99.90;;;;;;5043362;28;20217;-63
2024/01/26 03:55:06;;;;;;;14.33;9.77;;;10.80;99.90;;;;;;5045747;28;20315;-63
2024/01/26 03:57:37;;;;;;;13.70;10.00;;;10.80;99.90;;;;;;5041590;28;20299;-63
2024/01/26 04:00:10;;;;;;;14.77;9.83;;;10.80;99.90;;;;;;5047314;28;20220;-63
2024/01/26 04:02:39;;;;;;;15.00;10.40;;;10.80;99.90;;;;;;5046644;28;20568;-63
2024/01/26 04:05:09;;;;;;;17.50;10.17;;;10.70;99.90;;;;;;5044458;28;20186;-62
2024/01/26 04:07:38;;;;;;;16.83;10.73;;;10.70;99.90;;;;;;5048175;28;20201;-63
2024/01/26 04:10:07;;;;;;;18.27;11.50;;;10.70;99.90;;;;;;5044678;28;20223;-62
2024/01/26 04:12:35;;;;;;;16.70;11.00;;;10.70;99.90;;;;;;5044574;28;20256;-62
2024/01/26 04:15:04;;;;;;;14.73;11.40;;;10.70;99.90;;;;;;5044452;28;20214;-63
2024/01/26 04:17:32;;;;;;;16.70;11.00;;;10.60;99.90;;;;;;5044912;28;20231;-63
2024/01/26 04:20:00;;;;;;;14.63;10.83;;;10.60;99.90;;;;;;5041533;28;20476;-62
2024/01/26 04:22:30;;;;;;;16.80;11.40;;;10.60;99.90;;;;;;5044631;28;20221;-62
2024/01/26 04:24:58;;;;;;;16.43;12.23;;;10.60;99.90;;;;;;5045905;28;20715;-62
2024/01/26 04:27:26;;;;;;;19.30;12.17;;;10.60;99.90;;;;;;5043847;28;20235;-62
2024/01/26 04:29:56;;;;;;;20.93;11.73;;;10.70;99.90;;;;;;5041380;28;20740;-62
2024/01/26 04:32:24;;;;;;;17.07;11.23;;;10.60;99.90;;;;;;5045070;28;20193;-62
2024/01/26 04:34:52;;;;;;;15.10;11.73;;;10.60;99.90;;;;;;5047575;28;20224;-62
2024/01/26 04:37:21;;;;;;;20.60;11.83;;;10.60;99.90;;;;;;5043605;28;20221;-63
2024/01/26 04:39:51;;;;;;;17.17;11.67;;;10.60;99.90;;;;;;5043790;28;20217;-62
2024/01/26 04:42:19;;;;;;;17.63;11.33;;;10.60;99.90;;;;;;5047191;28;20213;-62
2024/01/26 04:44:51;;;;;;;15.53;10.97;;;10.60;99.90;;;;;;5044352;28;20229;-62
2024/01/26 04:47:19;;;;;;;18.73;11.60;;;10.60;99.90;;;;;;5042710;28;20196;-62
2024/01/26 04:49:47;;;;;;;18.93;11.00;;;10.60;99.90;;;;;;5041879;28;20243;-62
2024/01/26 04:52:16;;;;;;;15.93;11.17;;;10.60;99.90;;;;;;5059186;28;20630;-62
2024/01/26 04:54:46;;;;;;;19.00;11.00;;;10.60;99.90;;;;;;5045717;28;20228;-62
2024/01/26 04:57:16;;;;;;;17.10;11.70;;;10.60;99.90;;;;;;5041323;28;20236;-61
2024/01/26 04:59:44;;;;;;;18.63;11.43;;;10.60;99.90;;;;;;5044908;28;20226;-63
2024/01/26 05:02:13;;;;;;;23.67;11.60;;;10.70;99.90;;;;;;5039069;28;20216;-62
2024/01/26 05:04:41;;;;;;;17.73;12.13;;;10.70;99.90;;;;;;5042972;28;20197;-62
2024/01/26 05:07:10;;;;;;;16.50;12.47;;;10.70;99.90;;;;;;5043883;28;20695;-62
2024/01/26 05:09:39;;;;;;;15.90;11.87;;;10.60;99.90;;;;;;5042494;28;20216;-63
2024/01/26 05:12:07;;;;;;;17.53;12.53;;;10.70;99.90;;;;;;5043093;28;20240;-63
2024/01/26 05:14:37;;;;;;;15.77;11.53;;;10.70;99.90;;;;;;5041355;28;20287;-62
2024/01/26 05:17:05;;;;;;;20.33;12.60;;;10.70;99.90;;;;;;5044770;28;20323;-61
2024/01/26 05:19:34;;;;;;;20.27;11.30;;;10.60;99.90;;;;;;5041915;28;20182;-62
2024/01/26 05:22:02;;;;;;;20.87;12.43;;;10.60;99.90;;;;;;5041485;28;20275;-62
2024/01/26 05:24:30;;;;;;;15.50;10.90;;;10.60;99.90;;;;;;5039798;28;20221;-62
2024/01/26 05:26:58;;;;;;;15.87;11.17;;;10.60;99.90;;;;;;5043997;28;20220;-62
2024/01/26 05:29:27;;;;;;;19.40;11.83;;;10.60;99.90;;;;;;5045448;28;20588;-63
2024/01/26 05:31:56;;;;;;;18.10;11.83;;;10.60;99.90;;;;;;5044470;28;20193;-63
2024/01/26 05:34:24;;;;;;;16.90;10.87;;;10.60;99.90;;;;;;5041159;28;20717;-62
2024/01/26 05:36:53;;;;;;;19.40;11.40;;;10.60;99.90;;;;;;5040138;28;20229;-62
2024/01/26 05:39:21;;;;;;;16.57;10.70;;;10.60;99.90;;;;;;5040245;28;20223;-62
2024/01/26 05:41:49;;;;;;;16.33;10.57;;;10.60;99.90;;;;;;5043858;28;20330;-62
2024/01/26 05:44:18;;;;;;;17.80;10.27;;;10.50;99.90;;;;;;5055446;28;20224;-62
2024/01/26 05:46:46;;;;;;;14.43;9.77;;;10.60;99.90;;;;;;5040496;28;20197;-63
2024/01/26 05:49:15;;;;;;;14.80;10.67;;;10.60;99.90;;;;;;5042763;28;20231;-62
2024/01/26 05:51:44;;;;;;;14.37;9.60;;;10.60;99.90;;;;;;5038414;28;20221;-62
2024/01/26 05:54:13;;;;;;;13.93;9.93;;;10.60;99.90;;;;;;5045506;28;20248;-62
2024/01/26 05:56:42;;;;;;;13.07;9.63;;;10.60;99.90;;;;;;5039762;28;20270;-63
2024/01/26 05:59:11;;;;;;;11.50;8.97;;;10.60;99.90;;;;;;5042533;28;20196;-62
2024/01/26 06:01:39;;;;;;;14.87;8.83;;;10.60;99.90;;;;;;5044958;28;20200;-62
2024/01/26 06:04:07;;;;;;;12.10;9.33;;;10.60;99.90;;;;;;5045917;28;20236;-62
2024/01/26 06:06:37;;;;;;;10.43;8.30;;;10.70;99.90;;;;;;5044702;28;20212;-63
2024/01/26 06:09:07;;;;;;;9.97;8.67;;;10.70;99.90;;;;;;5041566;28;20224;-64
2024/01/26 06:11:35;;;;;;;11.47;9.20;;;10.70;99.90;;;;;;5040305;28;20711;-62
2024/01/26 06:14:04;;;;;;;13.70;8.70;;;10.80;99.90;;;;;;5042108;28;20192;-62
2024/01/26 06:16:32;;;;;;;10.80;9.27;;;10.80;99.90;;;;;;5045176;28;20213;-63
2024/01/26 06:19:00;;;;;;;12.10;9.03;;;10.80;99.90;;;;;;5043308;28;20220;-62
2024/01/26 06:21:32;;;;;;;14.47;9.20;;;10.80;99.90;;;;;;5043983;28;20216;-63
2024/01/26 06:24:02;;;;;;;14.73;9.73;;;10.80;99.90;;;;;;5041991;28;20274;-63
2024/01/26 06:26:30;;;;;;;14.17;9.17;;;10.80;99.90;;;;;;5043335;28;20760;-63
2024/01/26 06:28:58;;;;;;;13.73;9.83;;;10.80;99.90;;;;;;5042832;28;20247;-62
2024/01/26 06:31:27;;;;;;;14.93;10.17;;;10.80;99.90;;;;;;5039047;28;20243;-63
2024/01/26 06:33:56;;;;;;;14.43;9.13;;;10.90;99.90;;;;;;5045363;28;20220;-63
2024/01/26 06:36:24;;;;;;;14.60;9.23;;;10.90;99.90;;;;;;5040377;28;20228;-62
2024/01/26 06:38:52;;;;;;;12.03;8.80;;;10.90;99.90;;;;;;5042018;28;20224;-62
2024/01/26 06:41:22;;;;;;;15.57;9.00;;;10.90;99.90;;;;;;5037918;28;20194;-62
2024/01/26 06:43:51;;;;;;;16.17;9.00;;;11.00;99.90;;;;;;5043425;28;20663;-61
2024/01/26 06:46:22;;;;;;;10.30;8.50;;;11.00;99.90;;;;;;5043988;28;20225;-62
2024/01/26 06:48:51;;;;;;;11.03;8.60;;;11.00;99.90;;;;;;5044473;28;20278;-63
2024/01/26 06:51:20;;;;;;;10.53;7.50;;;11.00;99.90;;;;;;5043850;28;20255;-62
2024/01/26 06:53:48;;;;;;;9.17;7.87;;;11.10;99.90;;;;;;5046656;28;20634;-62
2024/01/26 06:56:16;;;;;;;9.23;7.27;;;11.10;99.90;;;;;;5048881;28;20235;-62
2024/01/26 06:58:46;;;;;;;10.03;6.87;;;11.20;99.90;;;;;;5044580;28;20193;-62
2024/01/26 07:01:14;;;;;;;9.00;6.57;;;11.20;99.90;;;;;;5043415;28;20229;-62
2024/01/26 07:03:43;;;;;;;8.23;6.67;;;11.30;99.90;;;;;;5045374;28;20267;-62
2024/01/26 07:06:12;;;;;;;8.70;6.63;;;11.30;99.90;;;;;;5046474;28;20315;-62
2024/01/26 07:08:40;;;;;;;13.27;6.70;;;11.30;99.90;;;;;;5046333;28;20220;-63
2024/01/26 07:11:12;;;;;;;9.17;7.00;;;11.30;99.90;;;;;;5046062;28;20531;-62
2024/01/26 07:13:40;;;;;;;10.50;6.57;;;11.30;99.90;;;;;;5045904;28;20192;-62
2024/01/26 07:16:10;;;;;;;9.93;6.50;;;11.30;99.90;;;;;;5044195;28;20221;-63
2024/01/26 07:18:38;;;;;;;7.03;6.10;;;11.30;99.90;;;;;;5045219;28;20830;-63
2024/01/26 07:21:08;;;;;;;6.67;5.97;;;11.40;99.90;;;;;;5044189;28;20344;-63
2024/01/26 07:23:39;;;;;;;7.00;5.60;;;11.50;99.90;;;;;;5046452;28;20228;-63
2024/01/26 07:26:08;;;;;;;8.50;6.10;;;11.50;99.90;;;;;;5041809;28;20192;-63
2024/01/26 07:28:36;;;;;;;7.70;5.60;;;11.50;99.90;;;;;;5043489;28;20230;-63
2024/01/26 07:31:04;;;;;;;6.77;5.70;;;11.60;99.90;;;;;;5041395;28;20236;-63
2024/01/26 07:33:34;;;;;;;7.47;6.00;;;11.60;99.90;;;;;;5045939;28;20213;-63
2024/01/26 07:36:02;;;;;;;9.30;5.97;;;11.60;99.90;;;;;;5043860;28;20240;-63
2024/01/26 07:38:30;;;;;;;7.87;5.67;;;11.60;99.90;;;;;;5044510;28;20220;-63
2024/01/26 07:40:59;;;;;;;6.00;5.43;;;11.60;99.90;;;;;;5042085;28;20290;-63
2024/01/26 07:43:27;;;;;;;6.27;5.67;;;11.60;99.90;;;;;;5043762;28;20221;-63
2024/01/26 07:45:55;;;;;;;7.00;6.20;;;11.60;99.90;;;;;;5043553;28;20221;-62
2024/01/26 07:48:24;;;;;;;10.53;6.03;;;11.60;99.90;;;;;;5042766;28;20256;-62
2024/01/26 07:50:53;;;;;;;7.40;6.50;;;11.60;99.90;;;;;;5043407;28;20225;-62
2024/01/26 07:53:22;;;;;;;8.87;6.40;;;11.60;99.90;;;;;;5042848;28;20193;-62
2024/01/26 07:55:50;;;;;;;9.13;6.73;;;11.60;99.90;;;;;;5045750;28;20193;-63
2024/01/26 07:58:18;;;;;;;8.07;6.93;;;11.50;99.90;;;;;;5046501;28;20251;-62
2024/01/26 08:00:49;;;;;;;12.87;7.03;;;11.50;99.90;;;;;;5041486;28;20228;-62
2024/01/26 08:03:17;;;;;;;8.50;6.53;;;11.50;99.90;;;;;;5043896;28;20216;-63
2024/01/26 08:05:45;;;;;;;7.20;6.50;;;11.50;99.90;;;;;;5038768;28;20229;-62
2024/01/26 08:08:15;;;;;;;10.80;7.03;;;11.50;99.90;;;;;;5042152;28;20189;-62
2024/01/26 08:10:44;;;;;;;9.73;6.97;;;11.50;99.90;;;;;;5044863;28;20264;-63
2024/01/26 08:13:12;;;;;;;8.93;6.17;;;11.50;99.90;;;;;;5041390;28;20307;-62
2024/01/26 08:15:41;;;;;;;7.97;6.20;;;11.60;99.90;;;;;;5043541;28;20226;-63
2024/01/26 08:18:10;;;;;;;13.17;6.50;;;11.60;99.90;;;;;;5041379;28;20311;-63
2024/01/26 08:20:38;;;;;;;9.47;6.23;;;11.60;99.90;;;;;;5044110;28;20231;-63
2024/01/26 08:23:06;;;;;;;7.43;6.23;;;11.70;99.90;;;;;;5043540;28;20592;-63
2024/01/26 08:25:36;;;;;;;9.30;6.37;;;11.60;99.90;;;;;;5045020;28;20192;-63
2024/01/26 08:28:06;;;;;;;8.70;6.10;;;11.60;99.90;;;;;;5045715;28;20231;-63
2024/01/26 08:30:35;;;;;;;10.33;5.50;;;11.70;99.90;;;;;;5046899;28;20224;-63
2024/01/26 08:33:03;;;;;;;10.40;5.77;;;11.60;99.90;;;;;;5043970;28;20311;-64
2024/01/26 08:35:32;;;;;;;9.80;5.50;;;11.70;99.90;;;;;;5042747;28;20246;-63
2024/01/26 08:38:01;;;;;;;12.17;5.70;;;11.70;99.90;;;;;;5046084;28;20290;-63
2024/01/26 08:40:29;;;;;;;11.67;5.30;;;11.70;99.90;;;;;;5045044;28;20208;-63
2024/01/26 08:42:59;;;;;;;9.23;5.50;;;11.70;99.90;;;;;;5043335;28;20286;-63
2024/01/26 08:45:27;;;;;;;9.07;5.10;;;11.70;99.90;;;;;;5043397;28;20228;-63
2024/01/26 08:47:55;;;;;;;13.10;5.20;;;11.70;99.90;;;;;;5041854;28;20315;-63
2024/01/26 08:50:23;;;;;;;12.87;5.53;;;11.70;99.90;;;;;;5042581;28;20276;-63
2024/01/26 08:52:52;;;;;;;10.10;5.10;;;11.70;99.90;;;;;;5043683;28;20194;-63
2024/01/26 08:55:20;;;;;;;12.67;6.07;;;11.70;99.90;;;;;;5045115;28;20222;-62
2024/01/26 08:57:48;;;;;;;7.83;4.00;;;11.70;99.90;;;;;;5040907;28;20224;-62
2024/01/26 09:00:19;;;;;;;14.47;3.60;;;11.60;99.90;;;;;;5044654;28;20227;-62
2024/01/26 09:02:47;;;;;;;8.90;3.50;;;11.50;99.90;;;;;;5043637;28;20383;-63
2024/01/26 09:05:16;;;;;;;9.40;2.70;;;11.40;99.90;;;;;;5040738;28;20189;-63
2024/01/26 09:07:44;;;;;;;4.63;2.33;;;11.30;99.90;;;;;;5041032;28;20227;-63
2024/01/26 09:10:15;;;;;;;10.50;2.63;;;11.10;99.90;;;;;;5044193;28;20303;-63
2024/01/26 09:12:46;;;;;;;8.60;2.30;;;11.10;99.90;;;;;;5039078;28;20227;-62
2024/01/26 09:15:15;;;;;;;9.23;2.50;;;11.00;99.90;;;;;;5044713;28;20219;-63
2024/01/26 09:17:45;;;;;;;7.87;2.63;;;11.00;99.90;;;;;;5040918;28;20224;-63
2024/01/26 09:20:14;;;;;;;12.17;3.03;;;11.00;99.90;;;;;;5041637;28;20226;-62
2024/01/26 09:22:43;;;;;;;7.67;2.23;;;11.00;99.90;;;;;;5042423;28;20689;-63
2024/01/26 09:25:11;;;;;;;9.73;2.87;;;11.10;99.90;;;;;;5043810;28;20264;-64
2024/01/26 09:27:40;;;;;;;8.33;2.40;;;11.10;99.90;;;;;;5043990;28;20233;-64
2024/01/26 09:30:11;;;;;;;4.63;2.63;;;11.10;99.90;;;;;;5041080;28;20570;-64
2024/01/26 09:32:39;;;;;;;9.43;2.40;;;11.20;99.90;;;;;;5044326;28;20244;-63
2024/01/26 09:35:10;;;;;;;7.33;2.47;;;11.30;99.90;;;;;;5044759;28;20277;-64
2024/01/26 09:37:38;;;;;;;9.47;2.40;;;11.30;99.90;;;;;;5043339;28;20216;-63
2024/01/26 09:40:09;;;;;;;7.93;2.60;;;11.30;99.90;;;;;;5042915;28;20221;-64
2024/01/26 09:42:37;;;;;;;10.20;2.40;;;11.40;99.90;;;;;;5047277;28;20221;-64
2024/01/26 09:45:07;;;;;;;11.53;2.57;;;11.40;99.90;;;;;;5040894;28;20703;-64
2024/01/26 09:47:36;;;;;;;9.87;2.53;;;11.40;99.90;;;;;;5042687;28;20287;-63
2024/01/26 09:50:06;;;;;;;10.00;2.50;;;11.40;99.90;;;;;;5040024;28;20185;-64
2024/01/26 09:52:36;;;;;;;18.23;3.67;;;11.50;99.90;;;;;;5044815;28;20236;-64
2024/01/26 09:55:07;;;;;;;10.67;2.60;;;11.50;99.90;;;;;;5043967;28;20212;-65
2024/01/26 09:57:35;;;;;;;17.97;3.00;;;11.50;99.90;;;;;;5042644;28;20235;-64
2024/01/26 10:00:10;;;;;;;7.37;2.63;;;11.50;99.90;;;;;;5043816;28;20221;-64
2024/01/26 10:02:45;;;;;;;9.47;3.10;;;11.50;99.90;;;;;;5043495;28;20220;-64
2024/01/26 10:05:16;;;;;;;9.20;2.73;;;11.50;99.90;;;;;;5043196;28;20216;-64
2024/01/26 10:07:46;;;;;;;14.27;2.87;;;11.60;99.90;;;;;;5044678;28;21225;-64
2024/01/26 10:10:14;;;;;;;8.03;2.10;;;11.70;98.30;;;;;;5043708;28;20703;-64
2024/01/26 10:12:43;;;;;;;4.03;2.10;;;11.90;94.10;;;;;;5040631;28;20221;-64
2024/01/26 10:15:13;;;;;;;9.53;2.10;;;12.00;90.30;;;;;;5043093;28;20224;-64
2024/01/26 10:17:44;;;;;;;7.10;2.03;;;11.90;78.00;;;;;;5044116;28;20633;-64
2024/01/26 10:20:18;;;;;;;5.37;2.47;;;11.70;89.80;;;;;;5041183;28;20208;-64
2024/01/26 10:22:48;;;;;;;4.50;1.60;;;11.80;93.00;;;;;;5043836;28;20275;-65
2024/01/26 10:25:16;;;;;;;7.90;2.10;;;12.00;88.80;;;;;;5045913;28;20220;-64
2024/01/26 10:27:45;;;;;;;4.77;2.03;;;12.20;74.70;;;;;;5046873;28;20828;-64
2024/01/26 10:30:14;;;;;;;5.67;1.90;;;12.40;55.00;;;;;;5046330;28;20212;-64
2024/01/26 10:32:44;;;;;;;3.87;1.70;;;12.60;60.60;;;;;;5044565;28;20240;-64
2024/01/26 10:35:18;;;;;;;4.67;1.87;;;12.80;57.00;;;;;;5049218;28;20285;-64
2024/01/26 10:37:48;;;;;;;7.50;1.57;;;12.90;57.50;;;;;;5044776;28;20200;-64
2024/01/26 10:40:19;;;;;;;3.40;1.30;;;12.90;33.20;;;;;;5045347;28;20216;-64
2024/01/26 10:42:48;;;;;;;7.53;1.93;;;12.60;34.20;;;;;;5047033;28;20224;-65
2024/01/26 10:45:17;;;;;;;5.80;1.43;;;12.50;99.90;;;;;;5044691;28;20279;-64
2024/01/26 10:47:47;;;;;;;6.10;1.60;;;12.50;99.90;;;;;;5044262;28;20220;-64
2024/01/26 10:50:16;;;;;;;6.53;2.10;;;12.60;99.90;;;;;;5046746;28;20192;-65
2024/01/26 10:52:47;;;;;;;6.67;1.60;;;12.50;99.90;;;;;;5043178;28;20224;-64
2024/01/26 10:55:18;;;;;;;4.50;1.60;;;12.70;99.90;;;;;;5047341;28;20230;-63
2024/01/26 10:57:46;;;;;;;1.87;1.23;;;12.80;99.90;;;;;;5045265;28;20595;-64
2024/01/26 11:00:15;;;;;;;9.53;1.83;;;12.80;99.90;;;;;;5044835;28;20220;-64
2024/01/26 11:02:44;;;;;;;5.40;1.77;;;12.60;99.90;;;;;;5048888;28;20222;-64
2024/01/26 11:05:15;;;;;;;3.50;1.67;;;12.50;99.90;;;;;;5041999;28;20691;-63
2024/01/26 11:07:44;;;;;;;4.43;1.60;;;12.60;99.90;;;;;;5049959;28;20196;-64
2024/01/26 11:10:20;;;;;;;8.90;1.57;;;12.30;99.90;;;;;;5047272;28;20291;-64
2024/01/26 11:12:59;;;;;;;6.27;1.43;;;12.30;99.90;;;;;;5041214;28;20214;-64
2024/01/26 11:15:27;;;;;;;4.87;1.63;;;12.30;99.90;;;;;;5042593;28;20232;-64
2024/01/26 11:17:57;;;;;;;3.37;1.53;;;12.10;99.90;;;;;;5043342;28;20280;-63
2024/01/26 11:20:28;;;;;;;4.57;1.73;;;11.90;99.90;;;;;;5045931;28;20231;-64
2024/01/26 11:23:00;;;;;;;3.83;1.77;;;11.90;99.90;;;;;;5043785;28;20691;-64
2024/01/26 11:25:36;;;;;;;10.17;2.30;;;12.00;99.90;;;;;;5048072;28;20240;-64
2024/01/26 11:28:05;;;;;;;7.43;1.80;;;12.00;99.90;;;;;;5044778;28;20233;-64
2024/01/26 11:30:35;;;;;;;4.13;1.63;;;12.00;99.90;;;;;;5046386;28;20303;-64
2024/01/26 11:33:15;;;;;;;7.17;1.97;;;12.10;99.90;;;;;;5046631;28;20225;-64
2024/01/26 11:35:43;;;;;;;5.53;1.90;;;12.30;99.90;;;;;;5047070;28;20299;-64
2024/01/26 11:38:17;;;;;;;6.23;1.67;;;12.40;99.90;;;;;;5044775;28;20199;-64
2024/01/26 11:40:47;;;;;;;8.57;1.70;;;12.40;99.90;;;;;;5048330;28;20211;-64
2024/01/26 11:43:15;;;;;;;1.70;1.57;;;12.40;99.90;;;;;;5040959;28;20213;-64
2024/01/26 11:45:44;;;;;;;5.87;1.70;;;12.30;99.90;;;;;;5044262;28;20212;-64
2024/01/26 11:48:14;;;;;;;7.57;1.70;;;12.20;99.90;;;;;;5046800;28;20223;-64
2024/01/26 11:50:44;;;;;;;10.27;1.73;;;12.20;99.90;;;;;;5040532;28;20633;-64
2024/01/26 11:53:16;;;;;;;8.10;1.83;;;12.20;99.90;;;;;;5045910;28;20193;-64
2024/01/26 11:55:46;;;;;;;3.50;1.70;;;12.10;99.90;;;;;;5044879;28;20516;-64
2024/01/26 11:58:21;;;;;;;5.27;1.80;;;12.20;99.90;;;;;;5044901;28;20765;-64
2024/01/26 12:00:49;;;;;;;6.60;1.90;;;12.30;99.90;;;;;;5048624;28;20335;-64
2024/01/26 12:03:20;;;;;;;3.20;1.67;;;12.20;99.90;;;;;;5044773;28;20858;-64
2024/01/26 12:05:49;;;;;;;6.83;1.70;;;12.30;99.90;;;;;;5043818;28;20305;-65
2024/01/26 12:08:18;;;;;;;6.93;1.73;;;12.20;99.90;;;;;;5044944;28;20216;-63
2024/01/26 12:10:48;;;;;;;7.73;1.93;;;12.10;99.90;;;;;;5043302;28;20200;-64
2024/01/26 12:13:18;;;;;;;5.53;1.80;;;12.00;99.90;;;;;;5044333;28;20224;-64
2024/01/26 12:15:47;;;;;;;4.20;1.53;;;12.00;99.90;;;;;;5040826;28;20231;-64
2024/01/26 12:18:17;;;;;;;7.43;1.70;;;12.00;99.90;;;;;;5044386;28;20770;-65
2024/01/26 12:20:51;;;;;;;3.20;1.70;;;11.90;99.90;;;;;;5039442;28;20282;-64
2024/01/26 12:23:21;;;;;;;3.97;1.40;;;11.90;99.90;;;;;;5040645;28;20205;-64
2024/01/26 12:25:52;;;;;;;6.40;2.00;;;12.00;99.90;;;;;;5041932;28;20223;-64
2024/01/26 12:28:20;;;;;;;5.77;2.37;;;11.90;99.90;;;;;;5043709;28;20241;-64
2024/01/26 12:30:49;;;;;;;5.80;1.87;;;12.00;99.90;;;;;;5046714;28;20227;-64
2024/01/26 12:33:17;;;;;;;4.80;1.77;;;12.00;99.90;;;;;;5041262;28;20225;-65
2024/01/26 12:35:46;;;;;;;2.60;1.87;;;11.90;99.90;;;;;;5043106;28;20221;-64
2024/01/26 12:38:16;;;;;;;7.63;1.83;;;11.90;99.90;;;;;;5047407;28;20532;-64
2024/01/26 12:40:47;;;;;;;6.27;1.97;;;11.80;99.90;;;;;;5045376;28;20241;-64
2024/01/26 12:43:16;;;;;;;9.90;2.00;;;11.50;99.90;;;;;;5047066;28;20212;-64
2024/01/26 12:45:45;;;;;;;7.93;2.00;;;11.50;99.90;;;;;;5040300;28;20271;-64
2024/01/26 12:48:13;;;;;;;8.10;1.93;;;11.40;99.90;;;;;;5041245;28;20221;-65